sensor_id;sensor_type;location;lat;lon;timestamp;temperature;humidity
22827;DHT22;11580;52.562;13.418;2024-01-30T00:01:24;8.70;23.10
22827;DHT22;11580;52.562;13.418;2024-01-30T00:03:52;8.70;23.20
22827;DHT22;11580;52.562;13.418;2024-01-30T00:06:19;8.70;23.20
22827;DHT22;11580;52.562;13.418;2024-01-30T00:08:48;8.70;23.20
22827;DHT22;11580;52.562;13.418;2024-01-30T00:11:16;8.60;23.10
22827;DHT22;11580;52.562;13.418;2024-01-30T00:13:43;8.60;23.10
22827;DHT22;11580;52.562;13.418;2024-01-30T00:16:20;8.60;23.20
22827;DHT22;11580;52.562;13.418;2024-01-30T00:18:49;8.60;23.50
22827;DHT22;11580;52.562;13.418;2024-01-30T00:21:17;8.50;23.20
22827;DHT22;11580;52.562;13.418;2024-01-30T00:23:44;8.50;23.30
22827;DHT22;11580;52.562;13.418;2024-01-30T00:26:13;8.50;23.30
22827;DHT22;11580;52.562;13.418;2024-01-30T00:28:41;8.50;23.20
22827;DHT22;11580;52.562;13.418;2024-01-30T00:31:08;8.50;23.30
22827;DHT22;11580;52.562;13.418;2024-01-30T00:33:38;8.40;23.30
22827;DHT22;11580;52.562;13.418;2024-01-30T00:36:05;8.40;23.90
22827;DHT22;11580;52.562;13.418;2024-01-30T00:38:33;8.40;23.40
22827;DHT22;11580;52.562;13.418;2024-01-30T00:41:00;8.40;23.40
22827;DHT22;11580;52.562;13.418;2024-01-30T00:43:29;8.30;23.30
22827;DHT22;11580;52.562;13.418;2024-01-30T00:45:58;8.30;23.30
22827;DHT22;11580;52.562;13.418;2024-01-30T00:48:25;8.30;23.30
22827;DHT22;11580;52.562;13.418;2024-01-30T00:50:52;8.30;23.30
22827;DHT22;11580;52.562;13.418;2024-01-30T00:53:20;8.20;23.30
22827;DHT22;11580;52.562;13.418;2024-01-30T00:55:47;8.20;23.30
22827;DHT22;11580;52.562;13.418;2024-01-30T00:58:14;8.20;23.30
22827;DHT22;11580;52.562;13.418;2024-01-30T01:00:43;8.20;23.30
22827;DHT22;11580;52.562;13.418;2024-01-30T01:03:10;8.10;23.20
22827;DHT22;11580;52.562;13.418;2024-01-30T01:05:37;8.10;23.80
22827;DHT22;11580;52.562;13.418;2024-01-30T01:08:05;8.10;23.40
22827;DHT22;11580;52.562;13.418;2024-01-30T01:10:32;8.10;23.40
22827;DHT22;11580;52.562;13.418;2024-01-30T01:12:59;8.00;23.40
22827;DHT22;11580;52.562;13.418;2024-01-30T01:15:26;8.00;23.40
22827;DHT22;11580;52.562;13.418;2024-01-30T01:17:55;8.00;23.50
22827;DHT22;11580;52.562;13.418;2024-01-30T01:20:22;8.00;23.50
22827;DHT22;11580;52.562;13.418;2024-01-30T01:22:49;7.90;23.50
22827;DHT22;11580;52.562;13.418;2024-01-30T01:25:18;7.90;23.50
22827;DHT22;11580;52.562;13.418;2024-01-30T01:27:45;7.90;23.60
22827;DHT22;11580;52.562;13.418;2024-01-30T01:30:17;7.90;23.60
22827;DHT22;11580;52.562;13.418;2024-01-30T01:32:48;7.90;23.60
22827;DHT22;11580;52.562;13.418;2024-01-30T01:35:21;7.90;23.60
22827;DHT22;11580;52.562;13.418;2024-01-30T01:37:50;7.90;23.60
22827;DHT22;11580;52.562;13.418;2024-01-30T01:40:22;7.80;23.60
22827;DHT22;11580;52.562;13.418;2024-01-30T01:42:50;7.80;23.70
22827;DHT22;11580;52.562;13.418;2024-01-30T01:45:18;7.80;24.30
22827;DHT22;11580;52.562;13.418;2024-01-30T01:47:48;7.80;23.70
22827;DHT22;11580;52.562;13.418;2024-01-30T01:50:18;7.80;23.80
22827;DHT22;11580;52.562;13.418;2024-01-30T01:52:49;7.80;23.80
22827;DHT22;11580;52.562;13.418;2024-01-30T01:55:20;7.80;23.80
22827;DHT22;11580;52.562;13.418;2024-01-30T01:57:50;7.80;23.80
22827;DHT22;11580;52.562;13.418;2024-01-30T02:00:18;7.80;23.90
22827;DHT22;11580;52.562;13.418;2024-01-30T02:02:46;7.70;23.90
22827;DHT22;11580;52.562;13.418;2024-01-30T02:05:14;7.70;23.90
22827;DHT22;11580;52.562;13.418;2024-01-30T02:07:44;7.70;23.90
22827;DHT22;11580;52.562;13.418;2024-01-30T02:10:11;7.70;24.40
22827;DHT22;11580;52.562;13.418;2024-01-30T02:12:38;7.70;23.90
22827;DHT22;11580;52.562;13.418;2024-01-30T02:15:06;7.70;24.00
22827;DHT22;11580;52.562;13.418;2024-01-30T02:17:33;7.70;24.00
22827;DHT22;11580;52.562;13.418;2024-01-30T02:20:01;7.70;24.00
22827;DHT22;11580;52.562;13.418;2024-01-30T02:22:32;7.70;24.00
22827;DHT22;11580;52.562;13.418;2024-01-30T02:25:01;7.80;24.10
22827;DHT22;11580;52.562;13.418;2024-01-30T02:27:28;7.70;24.60
22827;DHT22;11580;52.562;13.418;2024-01-30T02:29:55;7.70;24.10
22827;DHT22;11580;52.562;13.418;2024-01-30T02:32:22;7.70;24.10
22827;DHT22;11580;52.562;13.418;2024-01-30T02:34:49;7.70;24.10
22827;DHT22;11580;52.562;13.418;2024-01-30T02:37:16;7.70;24.10
22827;DHT22;11580;52.562;13.418;2024-01-30T02:39:45;7.70;24.20
22827;DHT22;11580;52.562;13.418;2024-01-30T02:42:12;7.80;24.20
22827;DHT22;11580;52.562;13.418;2024-01-30T02:44:39;7.80;24.20
22827;DHT22;11580;52.562;13.418;2024-01-30T02:47:06;7.80;24.20
22827;DHT22;11580;52.562;13.418;2024-01-30T02:49:33;7.80;24.20
22827;DHT22;11580;52.562;13.418;2024-01-30T02:52:01;7.80;24.70
22827;DHT22;11580;52.562;13.418;2024-01-30T02:54:28;7.80;24.10
22827;DHT22;11580;52.562;13.418;2024-01-30T02:56:57;7.80;24.10
22827;DHT22;11580;52.562;13.418;2024-01-30T02:59:24;7.80;24.10
22827;DHT22;11580;52.562;13.418;2024-01-30T03:01:52;7.80;24.10
22827;DHT22;11580;52.562;13.418;2024-01-30T03:04:19;7.80;24.10
22827;DHT22;11580;52.562;13.418;2024-01-30T03:06:46;7.80;24.10
22827;DHT22;11580;52.562;13.418;2024-01-30T03:09:15;7.80;24.10
22827;DHT22;11580;52.562;13.418;2024-01-30T03:11:42;7.80;24.10
22827;DHT22;11580;52.562;13.418;2024-01-30T03:14:11;7.80;24.20
22827;DHT22;11580;52.562;13.418;2024-01-30T03:16:38;7.80;24.70
22827;DHT22;11580;52.562;13.418;2024-01-30T03:19:06;7.80;24.20
22827;DHT22;11580;52.562;13.418;2024-01-30T03:21:34;7.80;24.20
22827;DHT22;11580;52.562;13.418;2024-01-30T03:24:02;7.80;24.20
22827;DHT22;11580;52.562;13.418;2024-01-30T03:26:29;7.80;24.20
22827;DHT22;11580;52.562;13.418;2024-01-30T03:28:56;7.80;24.30
22827;DHT22;11580;52.562;13.418;2024-01-30T03:31:25;7.80;24.30
22827;DHT22;11580;52.562;13.418;2024-01-30T03:33:52;7.70;24.20
22827;DHT22;11580;52.562;13.418;2024-01-30T03:36:20;7.70;24.30
22827;DHT22;11580;52.562;13.418;2024-01-30T03:38:47;7.70;24.30
22827;DHT22;11580;52.562;13.418;2024-01-30T03:41:14;7.70;24.30
22827;DHT22;11580;52.562;13.418;2024-01-30T03:43:41;7.70;24.90
22827;DHT22;11580;52.562;13.418;2024-01-30T03:46:08;7.70;24.30
22827;DHT22;11580;52.562;13.418;2024-01-30T03:48:37;7.60;24.30
22827;DHT22;11580;52.562;13.418;2024-01-30T03:51:05;7.70;24.50
22827;DHT22;11580;52.562;13.418;2024-01-30T03:53:32;7.60;24.40
22827;DHT22;11580;52.562;13.418;2024-01-30T03:55:59;7.60;24.40
22827;DHT22;11580;52.562;13.418;2024-01-30T03:58:26;7.60;24.40
22827;DHT22;11580;52.562;13.418;2024-01-30T04:00:53;7.60;24.50
22827;DHT22;11580;52.562;13.418;2024-01-30T04:03:20;7.60;24.80
22827;DHT22;11580;52.562;13.418;2024-01-30T04:05:49;7.60;24.50
22827;DHT22;11580;52.562;13.418;2024-01-30T04:08:17;7.60;24.60
22827;DHT22;11580;52.562;13.418;2024-01-30T04:10:46;7.60;24.60
22827;DHT22;11580;52.562;13.418;2024-01-30T04:13:13;7.60;24.60
22827;DHT22;11580;52.562;13.418;2024-01-30T04:15:40;7.60;24.60
22827;DHT22;11580;52.562;13.418;2024-01-30T04:18:07;7.60;24.60
22827;DHT22;11580;52.562;13.418;2024-01-30T04:20:35;7.60;24.70
22827;DHT22;11580;52.562;13.418;2024-01-30T04:23:03;7.50;24.60
22827;DHT22;11580;52.562;13.418;2024-01-30T04:25:32;7.60;24.70
22827;DHT22;11580;52.562;13.418;2024-01-30T04:27:59;7.60;24.70
22827;DHT22;11580;52.562;13.418;2024-01-30T04:30:26;7.60;24.80
22827;DHT22;11580;52.562;13.418;2024-01-30T04:32:53;7.60;25.30
22827;DHT22;11580;52.562;13.418;2024-01-30T04:35:21;7.60;24.80
22827;DHT22;11580;52.562;13.418;2024-01-30T04:37:51;7.60;25.40
22827;DHT22;11580;52.562;13.418;2024-01-30T04:40:20;7.60;24.80
22827;DHT22;11580;52.562;13.418;2024-01-30T04:42:47;7.60;24.80
22827;DHT22;11580;52.562;13.418;2024-01-30T04:45:15;7.60;25.40
22827;DHT22;11580;52.562;13.418;2024-01-30T04:47:42;7.60;25.40
22827;DHT22;11580;52.562;13.418;2024-01-30T04:50:09;7.60;24.90
22827;DHT22;11580;52.562;13.418;2024-01-30T04:52:37;7.80;25.00
22827;DHT22;11580;52.562;13.418;2024-01-30T04:55:05;7.60;24.90
22827;DHT22;11580;52.562;13.418;2024-01-30T04:57:34;7.60;24.80
22827;DHT22;11580;52.562;13.418;2024-01-30T05:00:01;7.70;24.90
22827;DHT22;11580;52.562;13.418;2024-01-30T05:02:31;7.70;24.90
22827;DHT22;11580;52.562;13.418;2024-01-30T05:04:58;7.70;25.50
22827;DHT22;11580;52.562;13.418;2024-01-30T05:07:25;7.70;24.90
22827;DHT22;11580;52.562;13.418;2024-01-30T05:09:52;7.70;24.90
22827;DHT22;11580;52.562;13.418;2024-01-30T05:12:20;7.70;24.90
22827;DHT22;11580;52.562;13.418;2024-01-30T05:14:48;7.70;24.90
22827;DHT22;11580;52.562;13.418;2024-01-30T05:17:15;7.60;24.90
22827;DHT22;11580;52.562;13.418;2024-01-30T05:19:44;7.60;24.90
22827;DHT22;11580;52.562;13.418;2024-01-30T05:22:11;7.60;24.90
22827;DHT22;11580;52.562;13.418;2024-01-30T05:24:41;7.60;24.90
22827;DHT22;11580;52.562;13.418;2024-01-30T05:27:08;7.60;24.90
22827;DHT22;11580;52.562;13.418;2024-01-30T05:29:35;7.60;24.90
22827;DHT22;11580;52.562;13.418;2024-01-30T05:32:04;7.60;25.00
22827;DHT22;11580;52.562;13.418;2024-01-30T05:34:32;7.60;24.90
22827;DHT22;11580;52.562;13.418;2024-01-30T05:36:59;7.60;25.00
22827;DHT22;11580;52.562;13.418;2024-01-30T05:39:26;7.60;25.00
22827;DHT22;11580;52.562;13.418;2024-01-30T05:41:53;7.80;25.10
22827;DHT22;11580;52.562;13.418;2024-01-30T05:44:21;7.60;25.00
22827;DHT22;11580;52.562;13.418;2024-01-30T05:46:48;7.60;25.00
22827;DHT22;11580;52.562;13.418;2024-01-30T05:49:16;7.60;25.00
22827;DHT22;11580;52.562;13.418;2024-01-30T05:51:43;7.60;25.00
22827;DHT22;11580;52.562;13.418;2024-01-30T05:54:11;7.60;25.00
22827;DHT22;11580;52.562;13.418;2024-01-30T05:56:38;7.60;25.00
22827;DHT22;11580;52.562;13.418;2024-01-30T05:59:05;7.60;25.60
22827;DHT22;11580;52.562;13.418;2024-01-30T06:01:32;7.60;25.00
22827;DHT22;11580;52.562;13.418;2024-01-30T06:04:00;7.60;25.60
22827;DHT22;11580;52.562;13.418;2024-01-30T06:06:29;7.60;25.60
22827;DHT22;11580;52.562;13.418;2024-01-30T06:08:56;7.60;25.00
22827;DHT22;11580;52.562;13.418;2024-01-30T06:11:23;7.60;25.10
22827;DHT22;11580;52.562;13.418;2024-01-30T06:13:50;7.60;25.60
22827;DHT22;11580;52.562;13.418;2024-01-30T06:16:18;7.60;25.10
22827;DHT22;11580;52.562;13.418;2024-01-30T06:18:46;7.60;25.10
22827;DHT22;11580;52.562;13.418;2024-01-30T06:21:14;7.60;25.10
22827;DHT22;11580;52.562;13.418;2024-01-30T06:23:42;7.60;25.10
22827;DHT22;11580;52.562;13.418;2024-01-30T06:26:09;7.70;25.10
22827;DHT22;11580;52.562;13.418;2024-01-30T06:28:37;7.70;25.10
22827;DHT22;11580;52.562;13.418;2024-01-30T06:31:04;7.70;25.10
22827;DHT22;11580;52.562;13.418;2024-01-30T06:33:31;7.70;25.10
22827;DHT22;11580;52.562;13.418;2024-01-30T06:35:58;7.70;25.10
22827;DHT22;11580;52.562;13.418;2024-01-30T06:38:25;7.70;25.10
22827;DHT22;11580;52.562;13.418;2024-01-30T06:40:54;7.60;25.00
22827;DHT22;11580;52.562;13.418;2024-01-30T06:43:22;7.70;25.00
22827;DHT22;11580;52.562;13.418;2024-01-30T06:45:49;7.80;25.50
22827;DHT22;11580;52.562;13.418;2024-01-30T06:48:17;7.80;25.20
22827;DHT22;11580;52.562;13.418;2024-01-30T06:50:44;7.80;25.10
22827;DHT22;11580;52.562;13.418;2024-01-30T06:53:13;7.80;25.10
22827;DHT22;11580;52.562;13.418;2024-01-30T06:55:40;7.80;25.70
22827;DHT22;11580;52.562;13.418;2024-01-30T06:58:09;7.80;25.20
22827;DHT22;11580;52.562;13.418;2024-01-30T07:00:36;7.80;25.10
22827;DHT22;11580;52.562;13.418;2024-01-30T07:03:04;7.80;25.10
22827;DHT22;11580;52.562;13.418;2024-01-30T07:05:32;8.00;25.30
22827;DHT22;11580;52.562;13.418;2024-01-30T07:07:59;7.80;25.10
22827;DHT22;11580;52.562;13.418;2024-01-30T07:10:26;7.90;25.20
22827;DHT22;11580;52.562;13.418;2024-01-30T07:12:53;7.90;25.20
22827;DHT22;11580;52.562;13.418;2024-01-30T07:15:21;7.90;25.20
22827;DHT22;11580;52.562;13.418;2024-01-30T07:17:49;7.90;25.20
22827;DHT22;11580;52.562;13.418;2024-01-30T07:20:16;8.00;25.30
22827;DHT22;11580;52.562;13.418;2024-01-30T07:22:45;8.00;25.30
22827;DHT22;11580;52.562;13.418;2024-01-30T07:25:13;8.00;25.20
22827;DHT22;11580;52.562;13.418;2024-01-30T07:27:41;8.10;25.30
22827;DHT22;11580;52.562;13.418;2024-01-30T07:30:08;8.10;25.30
22827;DHT22;11580;52.562;13.418;2024-01-30T07:32:37;8.10;25.30
22827;DHT22;11580;52.562;13.418;2024-01-30T07:35:04;8.20;25.30
22827;DHT22;11580;52.562;13.418;2024-01-30T07:37:32;8.20;25.30
22827;DHT22;11580;52.562;13.418;2024-01-30T07:39:59;8.30;25.40
22827;DHT22;11580;52.562;13.418;2024-01-30T07:42:28;8.30;25.90
22827;DHT22;11580;52.562;13.418;2024-01-30T07:44:55;8.40;25.40
22827;DHT22;11580;52.562;13.418;2024-01-30T07:47:23;8.50;25.90
22827;DHT22;11580;52.562;13.418;2024-01-30T07:49:51;8.50;25.40
22827;DHT22;11580;52.562;13.418;2024-01-30T07:52:19;8.60;25.20
22827;DHT22;11580;52.562;13.418;2024-01-30T07:54:50;8.70;25.90
22827;DHT22;11580;52.562;13.418;2024-01-30T07:57:17;8.80;25.10
22827;DHT22;11580;52.562;13.418;2024-01-30T07:59:45;8.80;25.30
22827;DHT22;11580;52.562;13.418;2024-01-30T08:02:12;8.90;25.20
22827;DHT22;11580;52.562;13.418;2024-01-30T08:04:39;9.00;25.20
22827;DHT22;11580;52.562;13.418;2024-01-30T08:07:08;9.10;25.20
22827;DHT22;11580;52.562;13.418;2024-01-30T08:09:35;9.20;25.50
22827;DHT22;11580;52.562;13.418;2024-01-30T08:12:03;9.20;25.00
22827;DHT22;11580;52.562;13.418;2024-01-30T08:14:30;9.30;24.90
22827;DHT22;11580;52.562;13.418;2024-01-30T08:16:57;9.40;25.00
22827;DHT22;11580;52.562;13.418;2024-01-30T08:19:25;9.50;25.50
22827;DHT22;11580;52.562;13.418;2024-01-30T08:21:52;9.50;24.80
22827;DHT22;11580;52.562;13.418;2024-01-30T08:24:20;9.60;25.30
22827;DHT22;11580;52.562;13.418;2024-01-30T08:26:47;9.60;24.60
22827;DHT22;11580;52.562;13.418;2024-01-30T08:29:15;9.70;25.20
22827;DHT22;11580;52.562;13.418;2024-01-30T08:31:42;9.70;24.60
22827;DHT22;11580;52.562;13.418;2024-01-30T08:34:09;9.80;25.10
22827;DHT22;11580;52.562;13.418;2024-01-30T08:36:37;9.80;24.50
22827;DHT22;11580;52.562;13.418;2024-01-30T08:39:04;9.90;24.50
22827;DHT22;11580;52.562;13.418;2024-01-30T08:41:32;10.00;23.70
22827;DHT22;11580;52.562;13.418;2024-01-30T08:44:00;10.00;24.20
22827;DHT22;11580;52.562;13.418;2024-01-30T08:46:27;10.00;24.20
22827;DHT22;11580;52.562;13.418;2024-01-30T08:48:54;10.10;24.30
22827;DHT22;11580;52.562;13.418;2024-01-30T08:51:21;10.10;23.70
22827;DHT22;11580;52.562;13.418;2024-01-30T08:53:48;10.20;23.80
22827;DHT22;11580;52.562;13.418;2024-01-30T08:56:15;10.30;23.90
22827;DHT22;11580;52.562;13.418;2024-01-30T08:58:44;10.30;23.90
22827;DHT22;11580;52.562;13.418;2024-01-30T09:01:11;10.40;23.60
22827;DHT22;11580;52.562;13.418;2024-01-30T09:03:38;10.50;23.80
22827;DHT22;11580;52.562;13.418;2024-01-30T09:06:08;10.50;24.30
22827;DHT22;11580;52.562;13.418;2024-01-30T09:08:35;10.60;23.50
22827;DHT22;11580;52.562;13.418;2024-01-30T09:11:08;10.70;23.70
22827;DHT22;11580;52.562;13.418;2024-01-30T09:13:36;10.80;23.00
22827;DHT22;11580;52.562;13.418;2024-01-30T09:16:06;10.90;23.60
22827;DHT22;11580;52.562;13.418;2024-01-30T09:18:33;11.00;23.40
22827;DHT22;11580;52.562;13.418;2024-01-30T09:21:00;11.20;23.70
22827;DHT22;11580;52.562;13.418;2024-01-30T09:23:28;11.20;23.50
22827;DHT22;11580;52.562;13.418;2024-01-30T09:25:55;11.40;24.10
22827;DHT22;11580;52.562;13.418;2024-01-30T09:28:22;11.40;23.70
22827;DHT22;11580;52.562;13.418;2024-01-30T09:30:50;11.50;23.40
22827;DHT22;11580;52.562;13.418;2024-01-30T09:33:18;11.60;23.30
22827;DHT22;11580;52.562;13.418;2024-01-30T09:35:45;11.70;23.00
22827;DHT22;11580;52.562;13.418;2024-01-30T09:38:12;11.80;23.10
22827;DHT22;11580;52.562;13.418;2024-01-30T09:40:39;11.80;23.10
22827;DHT22;11580;52.562;13.418;2024-01-30T09:43:07;11.90;22.90
22827;DHT22;11580;52.562;13.418;2024-01-30T09:45:35;12.00;22.90
22827;DHT22;11580;52.562;13.418;2024-01-30T09:48:03;12.00;22.70
22827;DHT22;11580;52.562;13.418;2024-01-30T09:50:32;12.10;22.60
22827;DHT22;11580;52.562;13.418;2024-01-30T09:53:04;12.10;22.40
22827;DHT22;11580;52.562;13.418;2024-01-30T09:55:33;12.20;22.30
22827;DHT22;11580;52.562;13.418;2024-01-30T09:58:02;12.20;22.40
22827;DHT22;11580;52.562;13.418;2024-01-30T10:00:29;12.30;22.30
22827;DHT22;11580;52.562;13.418;2024-01-30T10:02:57;12.30;22.20
22827;DHT22;11580;52.562;13.418;2024-01-30T10:05:27;12.30;22.10
22827;DHT22;11580;52.562;13.418;2024-01-30T10:07:56;12.40;21.60
22827;DHT22;11580;52.562;13.418;2024-01-30T10:10:24;12.40;21.60
22827;DHT22;11580;52.562;13.418;2024-01-30T10:12:51;12.50;22.00
22827;DHT22;11580;52.562;13.418;2024-01-30T10:15:18;12.50;22.00
22827;DHT22;11580;52.562;13.418;2024-01-30T10:17:46;12.60;21.90
22827;DHT22;11580;52.562;13.418;2024-01-30T10:20:13;12.60;22.40
22827;DHT22;11580;52.562;13.418;2024-01-30T10:22:40;12.60;21.70
22827;DHT22;11580;52.562;13.418;2024-01-30T10:25:11;12.60;21.70
22827;DHT22;11580;52.562;13.418;2024-01-30T10:27:39;12.70;21.30
22827;DHT22;11580;52.562;13.418;2024-01-30T10:30:08;12.70;21.20
22827;DHT22;11580;52.562;13.418;2024-01-30T10:32:35;12.70;21.30
22827;DHT22;11580;52.562;13.418;2024-01-30T10:35:03;12.80;21.40
22827;DHT22;11580;52.562;13.418;2024-01-30T10:37:31;12.80;21.20
22827;DHT22;11580;52.562;13.418;2024-01-30T10:40:02;12.80;21.00
22827;DHT22;11580;52.562;13.418;2024-01-30T10:42:33;12.90;20.70
22827;DHT22;11580;52.562;13.418;2024-01-30T10:45:06;12.90;20.70
22827;DHT22;11580;52.562;13.418;2024-01-30T10:47:35;13.00;20.80
22827;DHT22;11580;52.562;13.418;2024-01-30T10:50:04;13.00;20.70
22827;DHT22;11580;52.562;13.418;2024-01-30T10:52:33;13.00;20.70
22827;DHT22;11580;52.562;13.418;2024-01-30T10:55:01;13.00;20.80
22827;DHT22;11580;52.562;13.418;2024-01-30T10:57:34;13.10;20.80
22827;DHT22;11580;52.562;13.418;2024-01-30T11:00:04;13.10;20.40
22827;DHT22;11580;52.562;13.418;2024-01-30T11:02:36;13.10;20.50
22827;DHT22;11580;52.562;13.418;2024-01-30T11:05:05;13.10;20.80
22827;DHT22;11580;52.562;13.418;2024-01-30T11:07:34;13.20;20.90
22827;DHT22;11580;52.562;13.418;2024-01-30T11:10:03;13.30;20.90
22827;DHT22;11580;52.562;13.418;2024-01-30T11:12:38;13.30;20.70
22827;DHT22;11580;52.562;13.418;2024-01-30T11:15:10;13.30;19.60
22827;DHT22;11580;52.562;13.418;2024-01-30T11:17:43;13.30;20.70
22827;DHT22;11580;52.562;13.418;2024-01-30T11:20:14;13.40;20.00
22827;DHT22;11580;52.562;13.418;2024-01-30T11:22:44;13.40;20.60
22827;DHT22;11580;52.562;13.418;2024-01-30T11:25:12;13.40;20.50
22827;DHT22;11580;52.562;13.418;2024-01-30T11:27:42;13.50;20.50
22827;DHT22;11580;52.562;13.418;2024-01-30T11:30:10;13.50;20.00
22827;DHT22;11580;52.562;13.418;2024-01-30T11:32:38;13.60;20.50
22827;DHT22;11580;52.562;13.418;2024-01-30T11:35:06;13.60;20.40
22827;DHT22;11580;52.562;13.418;2024-01-30T11:37:37;13.80;20.40
22827;DHT22;11580;52.562;13.418;2024-01-30T11:40:06;13.70;19.90
22827;DHT22;11580;52.562;13.418;2024-01-30T11:42:36;13.70;20.30
22827;DHT22;11580;52.562;13.418;2024-01-30T11:45:07;13.80;20.00
22827;DHT22;11580;52.562;13.418;2024-01-30T11:47:35;13.70;19.90
22827;DHT22;11580;52.562;13.418;2024-01-30T11:50:03;13.80;20.80
22827;DHT22;11580;52.562;13.418;2024-01-30T11:52:32;13.80;20.20
22827;DHT22;11580;52.562;13.418;2024-01-30T11:55:00;13.90;20.30
22827;DHT22;11580;52.562;13.418;2024-01-30T11:57:28;13.90;20.20
22827;DHT22;11580;52.562;13.418;2024-01-30T11:59:55;13.90;20.30
22827;DHT22;11580;52.562;13.418;2024-01-30T12:02:24;14.00;20.40
22827;DHT22;11580;52.562;13.418;2024-01-30T12:04:51;14.00;20.10
22827;DHT22;11580;52.562;13.418;2024-01-30T12:07:18;14.10;20.40
22827;DHT22;11580;52.562;13.418;2024-01-30T12:09:52;14.20;20.40
22827;DHT22;11580;52.562;13.418;2024-01-30T12:12:21;14.30;19.30
22827;DHT22;11580;52.562;13.418;2024-01-30T12:14:50;14.30;20.60
22827;DHT22;11580;52.562;13.418;2024-01-30T12:17:26;14.50;20.40
22827;DHT22;11580;52.562;13.418;2024-01-30T12:20:05;14.50;19.10
22827;DHT22;11580;52.562;13.418;2024-01-30T12:22:36;14.60;19.00
22827;DHT22;11580;52.562;13.418;2024-01-30T12:25:04;14.70;19.70
22827;DHT22;11580;52.562;13.418;2024-01-30T12:27:34;14.80;20.00
22827;DHT22;11580;52.562;13.418;2024-01-30T12:30:02;14.90;20.10
22827;DHT22;11580;52.562;13.418;2024-01-30T12:32:34;14.90;19.90
22827;DHT22;11580;52.562;13.418;2024-01-30T12:35:02;15.10;19.50
22827;DHT22;11580;52.562;13.418;2024-01-30T12:37:30;15.00;19.80
22827;DHT22;11580;52.562;13.418;2024-01-30T12:39:58;15.00;19.70
22827;DHT22;11580;52.562;13.418;2024-01-30T12:42:27;15.10;19.70
22827;DHT22;11580;52.562;13.418;2024-01-30T12:44:56;15.10;19.40
22827;DHT22;11580;52.562;13.418;2024-01-30T12:47:24;15.10;20.20
22827;DHT22;11580;52.562;13.418;2024-01-30T12:49:52;15.20;20.00
22827;DHT22;11580;52.562;13.418;2024-01-30T12:52:21;15.10;19.60
22827;DHT22;11580;52.562;13.418;2024-01-30T12:54:49;15.10;20.20
22827;DHT22;11580;52.562;13.418;2024-01-30T12:57:17;15.10;19.70
22827;DHT22;11580;52.562;13.418;2024-01-30T12:59:45;15.00;19.60
22827;DHT22;11580;52.562;13.418;2024-01-30T13:02:13;15.00;19.50
22827;DHT22;11580;52.562;13.418;2024-01-30T13:04:42;15.00;19.60
22827;DHT22;11580;52.562;13.418;2024-01-30T13:07:11;15.00;19.50
22827;DHT22;11580;52.562;13.418;2024-01-30T13:09:38;14.90;19.40
22827;DHT22;11580;52.562;13.418;2024-01-30T13:12:06;14.90;19.60
22827;DHT22;11580;52.562;13.418;2024-01-30T13:14:33;14.80;19.50
22827;DHT22;11580;52.562;13.418;2024-01-30T13:17:00;14.80;20.20
22827;DHT22;11580;52.562;13.418;2024-01-30T13:19:28;14.90;20.20
22827;DHT22;11580;52.562;13.418;2024-01-30T13:21:55;14.90;19.80
22827;DHT22;11580;52.562;13.418;2024-01-30T13:24:24;14.80;19.70
22827;DHT22;11580;52.562;13.418;2024-01-30T13:26:52;14.70;19.40
22827;DHT22;11580;52.562;13.418;2024-01-30T13:29:19;14.60;19.70
22827;DHT22;11580;52.562;13.418;2024-01-30T13:31:46;14.60;19.70
22827;DHT22;11580;52.562;13.418;2024-01-30T13:34:14;14.60;19.70
22827;DHT22;11580;52.562;13.418;2024-01-30T13:36:41;14.50;19.70
22827;DHT22;11580;52.562;13.418;2024-01-30T13:39:09;14.50;19.80
22827;DHT22;11580;52.562;13.418;2024-01-30T13:41:41;14.60;20.00
22827;DHT22;11580;52.562;13.418;2024-01-30T13:44:08;14.40;19.70
22827;DHT22;11580;52.562;13.418;2024-01-30T13:46:36;14.40;20.00
22827;DHT22;11580;52.562;13.418;2024-01-30T13:49:04;14.40;20.70
22827;DHT22;11580;52.562;13.418;2024-01-30T13:51:32;14.30;20.60
22827;DHT22;11580;52.562;13.418;2024-01-30T13:53:59;14.30;20.10
22827;DHT22;11580;52.562;13.418;2024-01-30T13:56:26;14.30;20.10
22827;DHT22;11580;52.562;13.418;2024-01-30T13:58:55;14.40;20.20
22827;DHT22;11580;52.562;13.418;2024-01-30T14:01:23;14.30;20.00
22827;DHT22;11580;52.562;13.418;2024-01-30T14:03:50;14.30;20.20
22827;DHT22;11580;52.562;13.418;2024-01-30T14:06:17;14.30;20.20
22827;DHT22;11580;52.562;13.418;2024-01-30T14:08:45;14.30;20.20
22827;DHT22;11580;52.562;13.418;2024-01-30T14:11:12;14.30;20.20
22827;DHT22;11580;52.562;13.418;2024-01-30T14:13:39;14.40;20.30
22827;DHT22;11580;52.562;13.418;2024-01-30T14:16:08;14.30;20.30
22827;DHT22;11580;52.562;13.418;2024-01-30T14:18:35;14.30;20.10
22827;DHT22;11580;52.562;13.418;2024-01-30T14:21:02;14.20;20.30
22827;DHT22;11580;52.562;13.418;2024-01-30T14:23:29;14.20;20.30
22827;DHT22;11580;52.562;13.418;2024-01-30T14:25:57;14.30;20.50
22827;DHT22;11580;52.562;13.418;2024-01-30T14:28:24;14.20;20.40
22827;DHT22;11580;52.562;13.418;2024-01-30T14:30:51;14.20;21.00
22827;DHT22;11580;52.562;13.418;2024-01-30T14:33:19;14.10;20.40
22827;DHT22;11580;52.562;13.418;2024-01-30T14:35:47;14.10;20.40
22827;DHT22;11580;52.562;13.418;2024-01-30T14:38:14;14.10;20.60
22827;DHT22;11580;52.562;13.418;2024-01-30T14:40:41;14.10;20.60
22827;DHT22;11580;52.562;13.418;2024-01-30T14:43:08;14.10;20.60
22827;DHT22;11580;52.562;13.418;2024-01-30T14:45:36;14.00;20.60
22827;DHT22;11580;52.562;13.418;2024-01-30T14:48:03;14.00;21.20
22827;DHT22;11580;52.562;13.418;2024-01-30T14:50:32;14.00;20.60
22827;DHT22;11580;52.562;13.418;2024-01-30T14:53:00;14.00;20.50
22827;DHT22;11580;52.562;13.418;2024-01-30T14:55:27;14.00;20.70
22827;DHT22;11580;52.562;13.418;2024-01-30T14:57:54;13.90;20.70
22827;DHT22;11580;52.562;13.418;2024-01-30T15:00:21;13.90;20.70
22827;DHT22;11580;52.562;13.418;2024-01-30T15:02:48;13.90;20.80
22827;DHT22;11580;52.562;13.418;2024-01-30T15:05:16;13.90;20.90
22827;DHT22;11580;52.562;13.418;2024-01-30T15:07:44;13.80;21.40
22827;DHT22;11580;52.562;13.418;2024-01-30T15:10:11;13.80;20.80
22827;DHT22;11580;52.562;13.418;2024-01-30T15:12:39;13.70;21.00
22827;DHT22;11580;52.562;13.418;2024-01-30T15:15:07;13.70;21.70
22827;DHT22;11580;52.562;13.418;2024-01-30T15:17:35;13.60;21.00
22827;DHT22;11580;52.562;13.418;2024-01-30T15:20:02;13.60;21.10
22827;DHT22;11580;52.562;13.418;2024-01-30T15:22:30;13.50;21.10
22827;DHT22;11580;52.562;13.418;2024-01-30T15:24:59;13.50;21.10
22827;DHT22;11580;52.562;13.418;2024-01-30T15:27:26;13.60;21.10
22827;DHT22;11580;52.562;13.418;2024-01-30T15:29:53;13.40;21.60